Time,TemperatureF,DewpointF,PressureIn,WindDirection,WindDirectionDegrees,WindSpeedMPH,WindSpeedGustMPH,Humidity,HourlyPrecipIn,Conditions,Clouds,dailyrainin,SolarRadiationWatts/m^2,SoftwareType,DateUTC
2013-07-04 00:01:00,73.7,72.8,30.24,SW,216,1.0,1.0,97,0.00,,,0.00,0,Wunderground v.1.15,2013-07-04 04:01:00,
2013-07-04 00:02:00,73.7,72.8,30.24,SW,216,1.0,1.0,97,0.00,,,0.00,0,Wunderground v.1.15,2013-07-04 04:02:00,
2013-07-04 00:04:00,73.7,72.8,30.24,SW,216,1.0,1.0,97,0.00,,,0.00,0,Wunderground v.1.15,2013-07-04 04:04:00,
2013-07-04 00:10:00,73.5,72.6,30.24,SW,216,0.0,1.0,97,0.00,,,0.00,0,Wunderground v.1.15,2013-07-04 04:10:00,
2013-07-04 00:12:00,73.5,72.6,30.24,SW,216,0.0,2.0,97,0.00,,,0.00,0,Wunderground v.1.15,2013-07-04 04:12:00,
2013-07-04 00:18:00,73.5,72.9,30.24,SW,216,1.0,2.0,98,0.00,,,0.00,0,Wunderground v.1.15,2013-07-04 04:18:00,
2013-07-04 00:24:00,73.5,72.9,30.24,SW,216,0.0,1.0,98,0.00,,,0.00,0,Wunderground v.1.15,2013-07-04 04:24:00,
2013-07-04 00:30:00,73.3,72.7,30.25,SW,216,0.0,2.0,98,0.00,,,0.00,0,Wunderground v.1.15,2013-07-04 04:30:00,
2013-07-04 00:36:00,73.3,72.7,30.25,SW,216,1.0,2.0,98,0.00,,,0.00,0,Wunderground v.1.15,2013-07-04 04:36:00,
2013-07-04 00:42:00,73.3,72.7,30.25,SW,216,0.0,0.0,98,0.00,,,0.00,0,Wunderground v.1.15,2013-07-04 04:42:00,
2013-07-04 00:48:00,73.2,72.6,30.25,SW,216,1.0,2.0,98,0.00,,,0.00,0,Wunderground v.1.15,2013-07-04 04:48:00,
2013-07-04 00:54:00,73.2,72.6,30.25,SW,216,1.0,2.0,98,0.00,,,0.00,0,Wunderground v.1.15,2013-07-04 04:54:00,
2013-07-04 01:00:00,73.3,72.7,30.25,SW,216,1.0,2.0,98,0.00,,,0.00,0,Wunderground v.1.15,2013-07-04 05:00:00,
2013-07-04 01:06:00,73.3,72.7,30.25,SW,216,2.0,3.0,98,0.00,,,0.00,0,Wunderground v.1.15,2013-07-04 05:06:00,
2013-07-04 01:12:00,73.3,72.7,30.25,SW,216,2.0,2.0,98,0.00,,,0.00,0,Wunderground v.1.15,2013-07-04 05:12:00,
2013-07-04 01:18:00,73.3,72.7,30.25,SW,216,2.0,2.0,98,0.00,,,0.00,0,Wunderground v.1.15,2013-07-04 05:18:00,
2013-07-04 01:24:00,73.5,72.9,30.25,SW,216,2.0,5.0,98,0.00,,,0.00,0,Wunderground v.1.15,2013-07-04 05:24:00,
2013-07-04 01:30:00,73.5,72.9,30.25,SW,216,2.0,2.0,98,0.00,,,0.00,0,Wunderground v.1.15,2013-07-04 05:30:00,
2013-07-04 01:36:00,73.3,73.0,30.25,South,169,2.0,5.0,99,0.00,,,0.00,0,Wunderground v.1.15,2013-07-04 05:36:00,
2013-07-04 01:42:00,73.3,73.0,30.25,South,169,3.0,3.0,99,0.00,,,0.00,0,Wunderground v.1.15,2013-07-04 05:42:00,
2013-07-04 01:48:00,73.3,73.0,30.24,South,176,2.0,5.0,99,0.00,,,0.00,0,Wunderground v.1.15,2013-07-04 05:48:00,
2013-07-04 01:54:00,73.3,73.0,30.24,SSW,202,2.0,5.0,99,0.00,,,0.00,0,Wunderground v.1.15,2013-07-04 05:54:00,
2013-07-04 02:00:00,73.5,73.2,30.24,SSW,202,2.0,2.0,99,0.00,,,0.00,0,Wunderground v.1.15,2013-07-04 06:00:00,
2013-07-04 02:06:00,73.5,73.2,30.24,SSW,202,2.0,5.0,99,0.00,,,0.00,0,Wunderground v.1.15,2013-07-04 06:06:00,
2013-07-04 02:12:00,73.7,73.4,30.24,SSW,202,2.0,2.0,99,0.00,,,0.00,0,Wunderground v.1.15,2013-07-04 06:12:00,
2013-07-04 02:18:00,73.7,73.4,30.25,SSW,202,2.0,2.0,99,0.00,,,0.00,0,Wunderground v.1.15,2013-07-04 06:18:00,
2013-07-04 02:24:00,73.7,73.4,30.25,South,172,2.0,2.0,99,0.00,,,0.00,0,Wunderground v.1.15,2013-07-04 06:24:00,
2013-07-04 02:30:00,73.9,73.6,30.24,South,172,2.0,5.0,99,0.00,,,0.00,0,Wunderground v.1.15,2013-07-04 06:30:00,
2013-07-04 02:36:00,73.9,73.6,30.24,South,172,1.0,2.0,99,0.00,,,0.00,0,Wunderground v.1.15,2013-07-04 06:36:00,
2013-07-04 02:42:00,73.9,73.6,30.24,SW,234,1.0,1.0,99,0.00,,,0.00,0,Wunderground v.1.15,2013-07-04 06:42:00,
2013-07-04 02:48:00,74.0,73.7,30.24,SSW,202,3.0,7.0,99,0.00,,,0.00,0,Wunderground v.1.15,2013-07-04 06:48:00,
2013-07-04 02:54:00,74.2,73.9,30.24,SW,226,4.0,4.0,99,0.00,,,0.00,0,Wunderground v.1.15,2013-07-04 06:54:00,
2013-07-04 03:00:00,74.2,73.9,30.24,SW,233,3.0,4.0,99,0.00,,,0.00,0,Wunderground v.1.15,2013-07-04 07:00:00,
2013-07-04 03:06:00,74.4,74.1,30.24,WSW,240,3.0,6.0,99,0.00,,,0.00,0,Wunderground v.1.15,2013-07-04 07:06:00,
2013-07-04 03:12:00,74.4,74.1,30.24,South,174,3.0,8.0,99,0.00,,,0.00,0,Wunderground v.1.15,2013-07-04 07:12:00,
2013-07-04 03:18:00,74.6,74.3,30.24,SSW,192,4.0,8.0,99,0.00,,,0.00,0,Wunderground v.1.15,2013-07-04 07:18:00,
2013-07-04 03:24:00,74.6,74.3,30.24,SSW,192,4.0,5.0,99,0.00,,,0.00,0,Wunderground v.1.15,2013-07-04 07:24:00,
2013-07-04 03:30:00,74.6,74.3,30.24,WSW,237,3.0,3.0,99,0.00,,,0.00,0,Wunderground v.1.15,2013-07-04 07:30:00,
2013-07-04 03:36:00,74.6,74.3,30.24,South,175,3.0,5.0,99,0.00,,,0.00,0,Wunderground v.1.15,2013-07-04 07:36:00,
2013-07-04 03:42:00,74.6,74.3,30.24,SSW,208,4.0,5.0,99,0.00,,,0.00,0,Wunderground v.1.15,2013-07-04 07:42:00,
2013-07-04 03:48:00,74.6,74.3,30.24,SW,219,3.0,6.0,99,0.00,,,0.00,0,Wunderground v.1.15,2013-07-04 07:48:00,
2013-07-04 03:54:00,74.6,74.3,30.24,SW,222,3.0,5.0,99,0.00,,,0.00,0,Wunderground v.1.15,2013-07-04 07:54:00,
2013-07-04 04:00:00,74.6,74.3,30.23,South,189,3.0,3.0,99,0.00,,,0.00,0,Wunderground v.1.15,2013-07-04 08:00:00,
2013-07-04 04:06:00,74.6,74.3,30.23,SSW,196,3.0,4.0,99,0.00,,,0.00,0,Wunderground v.1.15,2013-07-04 08:06:00,
2013-07-04 04:12:00,74.6,74.3,30.23,South,191,2.0,2.0,99,0.00,,,0.00,0,Wunderground v.1.15,2013-07-04 08:12:00,
2013-07-04 04:18:00,74.6,74.3,30.23,SSW,192,3.0,3.0,99,0.00,,,0.00,0,Wunderground v.1.15,2013-07-04 08:18:00,
2013-07-04 04:24:00,74.6,74.3,30.23,South,186,3.0,5.0,99,0.00,,,0.00,0,Wunderground v.1.15,2013-07-04 08:24:00,
2013-07-04 04:31:00,74.6,74.3,30.24,SW,230,2.0,3.0,99,0.00,,,0.00,0,Wunderground v.1.15,2013-07-04 08:31:00,
2013-07-04 04:36:00,74.6,74.3,30.24,SW,216,2.0,3.0,99,0.00,,,0.00,0,Wunderground v.1.15,2013-07-04 08:36:00,
2013-07-04 04:42:00,74.6,74.3,30.24,SW,216,2.0,2.0,99,0.00,,,0.00,0,Wunderground v.1.15,2013-07-04 08:42:00,
2013-07-04 04:48:00,74.6,74.3,30.24,SW,216,1.0,2.0,99,0.00,,,0.00,0,Wunderground v.1.15,2013-07-04 08:48:00,
2013-07-04 04:54:00,74.6,74.3,30.24,SSE,158,1.0,2.0,99,0.00,,,0.00,0,Wunderground v.1.15,2013-07-04 08:54:00,
2013-07-04 05:00:00,74.4,74.1,30.24,SSE,158,2.0,2.0,99,0.00,,,0.00,0,Wunderground v.1.15,2013-07-04 09:00:00,
2013-07-04 05:06:00,74.4,74.1,30.24,SSE,158,1.0,2.0,99,0.00,,,0.00,0,Wunderground v.1.15,2013-07-04 09:06:00,
2013-07-04 05:12:00,74.4,74.1,30.24,SSE,158,1.0,2.0,99,0.00,,,0.00,0,Wunderground v.1.15,2013-07-04 09:12:00,
2013-07-04 05:18:00,74.2,73.9,30.24,SSE,158,1.0,2.0,99,0.00,,,0.00,0,Wunderground v.1.15,2013-07-04 09:18:00,
2013-07-04 05:24:00,74.2,73.9,30.24,South,181,2.0,2.0,99,0.00,,,0.00,0,Wunderground v.1.15,2013-07-04 09:24:00,
2013-07-04 05:30:00,74.0,73.7,30.24,South,181,2.0,2.0,99,0.00,,,0.00,0,Wunderground v.1.15,2013-07-04 09:30:00,
2013-07-04 05:36:00,74.0,73.7,30.24,South,181,1.0,2.0,99,0.00,,,0.00,0,Wunderground v.1.15,2013-07-04 09:36:00,
2013-07-04 05:42:00,73.9,73.6,30.24,South,181,1.0,3.0,99,0.00,,,0.00,0,Wunderground v.1.15,2013-07-04 09:42:00,
2013-07-04 05:48:00,74.0,73.7,30.24,South,181,1.0,3.0,99,0.00,,,0.00,0,Wunderground v.1.15,2013-07-04 09:48:00,
2013-07-04 05:54:00,74.0,73.7,30.24,South,181,1.0,2.0,99,0.00,,,0.00,0,Wunderground v.1.15,2013-07-04 09:54:00,
2013-07-04 06:00:00,74.0,73.7,30.25,South,181,1.0,1.0,99,0.00,,,0.00,0,Wunderground v.1.15,2013-07-04 10:00:00,
2013-07-04 06:06:00,74.2,73.9,30.25,SSE,165,1.0,1.0,99,0.00,,,0.00,5,Wunderground v.1.15,2013-07-04 10:06:00,
2013-07-04 06:12:00,74.2,73.9,30.25,SSE,165,1.0,2.0,99,0.00,,,0.00,5,Wunderground v.1.15,2013-07-04 10:12:00,
2013-07-04 06:18:00,74.2,73.9,30.25,SSE,165,0.0,2.0,99,0.00,,,0.00,14,Wunderground v.1.15,2013-07-04 10:18:00,
2013-07-04 06:24:00,74.2,73.9,30.25,SSE,165,1.0,1.0,99,0.00,,,0.00,18,Wunderground v.1.15,2013-07-04 10:24:00,
2013-07-04 06:30:00,74.4,74.1,30.25,SSE,165,1.0,1.0,99,0.00,,,0.00,16,Wunderground v.1.15,2013-07-04 10:30:00,
2013-07-04 06:36:00,74.4,74.1,30.25,SSE,168,1.0,1.0,99,0.00,,,0.00,37,Wunderground v.1.15,2013-07-04 10:36:00,
2013-07-04 06:42:00,74.4,74.4,30.25,SSE,168,2.0,2.0,100,0.00,,,0.00,33,Wunderground v.1.15,2013-07-04 10:42:00,
2013-07-04 06:48:00,74.4,74.1,30.25,SSE,168,1.0,2.0,99,0.00,,,0.00,19,Wunderground v.1.15,2013-07-04 10:48:00,
2013-07-04 06:54:00,74.2,73.9,30.25,SSE,168,1.0,2.0,99,0.00,,,0.00,42,Wunderground v.1.15,2013-07-04 10:54:00,
2013-07-04 07:00:00,74.2,73.9,30.26,SSE,168,1.0,1.0,99,0.00,,,0.00,33,Wunderground v.1.15,2013-07-04 11:00:00,
2013-07-04 07:06:00,74.4,74.1,30.26,SSW,210,1.0,2.0,99,0.00,,,0.00,35,Wunderground v.1.15,2013-07-04 11:06:00,
2013-07-04 07:12:00,74.6,74.6,30.26,SSW,210,1.0,2.0,100,0.00,,,0.00,90,Wunderground v.1.15,2013-07-04 11:12:00,
2013-07-04 07:18:00,74.6,74.6,30.26,SSW,205,2.0,5.0,100,0.00,,,0.00,70,Wunderground v.1.15,2013-07-04 11:18:00,
2013-07-04 07:24:00,74.7,74.7,30.26,SSW,200,2.0,5.0,100,0.00,,,0.00,86,Wunderground v.1.15,2013-07-04 11:24:00,
2013-07-04 07:30:00,75.1,75.1,30.27,SSW,200,2.0,2.0,100,0.00,,,0.00,169,Wunderground v.1.15,2013-07-04 11:30:00,
2013-07-04 07:36:00,75.4,75.4,30.27,SSW,200,1.0,2.0,100,0.00,,,0.00,134,Wunderground v.1.15,2013-07-04 11:36:00,
2013-07-04 07:42:00,75.4,75.1,30.27,SW,223,2.0,2.0,99,0.00,,,0.00,97,Wunderground v.1.15,2013-07-04 11:42:00,
2013-07-04 07:48:00,75.4,75.1,30.27,SW,229,3.0,10.0,99,0.00,,,0.00,107,Wunderground v.1.15,2013-07-04 11:48:00,
2013-07-04 07:54:00,75.6,75.3,30.27,SSW,202,3.0,5.0,99,0.00,,,0.00,176,Wunderground v.1.15,2013-07-04 11:54:00,
2013-07-04 08:00:00,76.0,75.7,30.27,South,186,2.0,7.0,99,0.00,,,0.00,90,Wunderground v.1.15,2013-07-04 12:00:00,
2013-07-04 08:06:00,76.0,75.7,30.27,South,175,3.0,7.0,99,0.00,,,0.00,179,Wunderground v.1.15,2013-07-04 12:06:00,
2013-07-04 08:12:00,76.1,75.5,30.27,SW,223,3.0,3.0,98,0.00,,,0.00,137,Wunderground v.1.15,2013-07-04 12:12:00,
2013-07-04 08:18:00,76.3,75.7,30.27,SW,223,3.0,3.0,98,0.00,,,0.00,127,Wunderground v.1.15,2013-07-04 12:18:00,
2013-07-04 08:24:00,76.3,75.4,30.27,SSW,205,3.0,5.0,97,0.00,,,0.00,135,Wunderground v.1.15,2013-07-04 12:24:00,
2013-07-04 08:30:00,76.5,75.3,30.27,SSE,154,4.0,4.0,96,0.00,,,0.00,76,Wunderground v.1.15,2013-07-04 12:30:00,
2013-07-04 08:36:00,76.3,75.1,30.27,SSW,213,3.0,4.0,96,0.00,,,0.00,62,Wunderground v.1.15,2013-07-04 12:36:00,
2013-07-04 08:42:00,76.5,75.3,30.27,SW,229,3.0,5.0,96,0.00,,,0.00,479,Wunderground v.1.15,2013-07-04 12:42:00,
2013-07-04 08:48:00,77.6,76.1,30.27,WSW,244,3.0,5.0,95,0.00,,,0.00,479,Wunderground v.1.15,2013-07-04 12:48:00,
2013-07-04 08:54:00,78.1,75.6,30.27,SSE,165,4.0,10.0,92,0.00,,,0.00,604,Wunderground v.1.15,2013-07-04 12:54:00,
2013-07-04 09:01:00,78.6,75.8,30.27,South,169,5.0,5.0,91,0.00,,,0.00,494,Wunderground v.1.15,2013-07-04 13:01:00,
2013-07-04 09:06:00,78.5,75.0,30.27,SSW,196,5.0,8.0,89,0.00,,,0.00,109,Wunderground v.1.15,2013-07-04 13:06:00,
2013-07-04 09:12:00,78.1,74.9,30.27,SW,223,5.0,5.0,90,0.00,,,0.00,137,Wunderground v.1.15,2013-07-04 13:12:00,
2013-07-04 09:18:00,78.3,75.8,30.27,SW,219,3.0,5.0,92,0.00,,,0.00,134,Wunderground v.1.15,2013-07-04 13:18:00,
2013-07-04 09:24:00,78.3,75.1,30.27,South,191,2.0,2.0,90,0.00,,,0.00,143,Wunderground v.1.15,2013-07-04 13:24:00,
2013-07-04 09:30:00,78.6,75.4,30.28,SSW,210,1.0,2.0,90,0.00,,,0.00,150,Wunderground v.1.15,2013-07-04 13:30:00,
2013-07-04 09:36:00,79.8,76.3,30.28,SSW,212,1.0,5.0,89,0.00,,,0.00,324,Wunderground v.1.15,2013-07-04 13:36:00,
2013-07-04 09:42:00,80.1,75.5,30.28,SW,219,2.0,2.0,86,0.00,,,0.00,236,Wunderground v.1.15,2013-07-04 13:42:00,
2013-07-04 09:48:00,79.6,75.0,30.28,SSW,202,5.0,6.0,86,0.00,,,0.00,143,Wunderground v.1.15,2013-07-04 13:48:00,
2013-07-04 09:54:00,78.8,74.3,30.28,SW,219,4.0,5.0,86,0.00,,,0.00,77,Wunderground v.1.15,2013-07-04 13:54:00,
2013-07-04 10:00:00,78.6,74.7,30.28,SSW,208,2.0,3.0,88,0.00,,,0.00,84,Wunderground v.1.15,2013-07-04 14:00:00,
2013-07-04 10:06:00,79.2,75.3,30.28,SSE,165,1.0,3.0,88,0.00,,,0.00,77,Wunderground v.1.15,2013-07-04 14:06:00,
2013-07-04 10:12:00,79.0,74.8,30.28,SSW,193,2.0,5.0,87,0.00,,,0.00,74,Wunderground v.1.15,2013-07-04 14:12:00,
2013-07-04 10:18:00,78.8,74.9,30.28,South,184,3.0,5.0,88,0.00,,,0.00,77,Wunderground v.1.15,2013-07-04 14:18:00,
2013-07-04 10:24:00,79.0,74.8,30.28,SW,222,3.0,6.0,87,0.00,,,0.00,157,Wunderground v.1.15,2013-07-04 14:24:00,
2013-07-04 10:30:00,78.8,74.3,30.28,SW,229,3.0,6.0,86,0.00,,,0.00,114,Wunderground v.1.15,2013-07-04 14:30:00,
2013-07-04 10:36:00,78.8,74.3,30.28,SSW,196,3.0,5.0,86,0.00,,,0.00,143,Wunderground v.1.15,2013-07-04 14:36:00,
2013-07-04 10:42:00,78.8,74.6,30.28,SW,219,4.0,5.0,87,0.34,,,0.03,160,Wunderground v.1.15,2013-07-04 14:42:00,
2013-07-04 10:48:00,78.5,75.7,30.28,SSW,200,4.0,5.0,91,0.10,,,0.04,91,Wunderground v.1.15,2013-07-04 14:48:00,
2013-07-04 10:54:00,78.6,76.7,30.28,SSW,200,2.0,3.0,94,0.05,,,0.04,102,Wunderground v.1.15,2013-07-04 14:54:00,
2013-07-04 11:00:00,79.8,77.6,30.27,SW,219,1.0,2.0,93,0.00,,,0.04,102,Wunderground v.1.15,2013-07-04 15:00:00,
2013-07-04 11:06:00,80.3,77.8,30.27,SSW,195,2.0,5.0,92,0.00,,,0.04,827,Wunderground v.1.15,2013-07-04 15:06:00,
2013-07-04 11:12:00,81.2,77.6,30.27,South,185,3.0,3.0,89,0.00,,,0.04,883,Wunderground v.1.15,2013-07-04 15:12:00,
2013-07-04 11:18:00,82.0,77.4,30.27,SW,217,2.0,3.0,86,0.00,,,0.04,883,Wunderground v.1.15,2013-07-04 15:18:00,
2013-07-04 11:24:00,81.8,76.5,30.27,SW,215,2.0,2.0,84,0.00,,,0.04,227,Wunderground v.1.15,2013-07-04 15:24:00,
2013-07-04 11:30:00,81.8,76.5,30.26,SSW,210,4.0,4.0,84,0.00,,,0.04,266,Wunderground v.1.15,2013-07-04 15:30:00,
2013-07-04 11:36:00,83.0,78.0,30.26,SW,229,4.0,7.0,85,0.00,,,0.04,1008,Wunderground v.1.15,2013-07-04 15:36:00,
2013-07-04 11:42:00,82.6,76.9,30.26,West,267,4.0,5.0,83,0.00,,,0.04,188,Wunderground v.1.15,2013-07-04 15:42:00,
2013-07-04 11:48:00,83.8,77.0,30.27,SSW,202,3.0,5.0,80,0.00,,,0.04,188,Wunderground v.1.15,2013-07-04 15:48:00,
2013-07-04 11:54:00,83.4,75.4,30.27,South,191,3.0,7.0,77,0.00,,,0.04,357,Wunderground v.1.15,2013-07-04 15:54:00,
2013-07-04 12:00:00,84.0,75.6,30.26,SW,216,4.0,8.0,76,0.00,,,0.04,1049,Wunderground v.1.15,2013-07-04 16:00:00,
2013-07-04 12:06:00,83.6,74.0,30.26,South,189,5.0,10.0,73,0.00,,,0.04,229,Wunderground v.1.15,2013-07-04 16:06:00,
2013-07-04 12:12:00,84.0,75.2,30.26,South,181,6.0,8.0,75,0.00,,,0.04,229,Wunderground v.1.15,2013-07-04 16:12:00,
2013-07-04 12:18:00,84.9,75.3,30.26,SSW,193,6.0,9.0,73,0.00,,,0.04,229,Wunderground v.1.15,2013-07-04 16:18:00,
2013-07-04 12:24:00,84.9,76.1,30.26,South,174,5.0,7.0,75,0.00,,,0.04,1026,Wunderground v.1.15,2013-07-04 16:24:00,
2013-07-04 12:30:00,84.1,75.3,30.26,SSE,162,6.0,11.0,75,0.00,,,0.04,350,Wunderground v.1.15,2013-07-04 16:30:00,
2013-07-04 12:36:00,85.3,76.1,30.26,SSE,168,6.0,11.0,74,0.00,,,0.04,1024,Wunderground v.1.15,2013-07-04 16:36:00,
2013-07-04 12:42:00,85.9,77.5,30.26,South,179,4.0,5.0,76,0.00,,,0.04,1003,Wunderground v.1.15,2013-07-04 16:42:00,
2013-07-04 12:48:00,86.1,76.8,30.25,South,169,5.0,7.0,74,0.00,,,0.04,964,Wunderground v.1.15,2013-07-04 16:48:00,
2013-07-04 12:54:00,85.7,73.5,30.25,SSW,205,6.0,8.0,67,0.00,,,0.04,1056,Wunderground v.1.15,2013-07-04 16:54:00,
2013-07-04 13:00:00,85.5,74.6,30.26,SSW,210,6.0,6.0,70,0.00,,,0.04,1056,Wunderground v.1.15,2013-07-04 17:00:00,
2013-07-04 13:06:00,85.7,74.4,30.26,South,189,6.0,8.0,69,0.00,,,0.04,1056,Wunderground v.1.15,2013-07-04 17:06:00,
2013-07-04 13:12:00,86.5,73.8,30.26,South,179,6.0,7.0,66,0.00,,,0.04,1087,Wunderground v.1.15,2013-07-04 17:12:00,
2013-07-04 13:18:00,86.1,75.2,30.25,SW,216,4.0,7.0,70,0.00,,,0.04,1087,Wunderground v.1.15,2013-07-04 17:18:00,
2013-07-04 13:24:00,86.5,75.1,30.25,SE,145,3.0,8.0,69,0.00,,,0.04,1235,Wunderground v.1.15,2013-07-04 17:24:00,
2013-07-04 13:30:00,85.9,75.0,30.25,SSW,198,5.0,10.0,70,0.00,,,0.04,333,Wunderground v.1.15,2013-07-04 17:30:00,
2013-07-04 13:36:00,86.1,73.9,30.25,SSW,193,5.0,5.0,67,0.00,,,0.04,355,Wunderground v.1.15,2013-07-04 17:36:00,
2013-07-04 13:42:00,85.5,73.3,30.25,SW,233,5.0,5.0,67,0.00,,,0.04,255,Wunderground v.1.15,2013-07-04 17:42:00,
2013-07-04 13:48:00,87.2,76.6,30.24,SSW,195,4.0,10.0,71,0.00,,,0.04,1017,Wunderground v.1.15,2013-07-04 17:48:00,
2013-07-04 13:54:00,86.7,75.3,30.24,South,178,4.0,7.0,69,0.00,,,0.04,996,Wunderground v.1.15,2013-07-04 17:54:00,
2013-07-04 14:00:00,86.7,73.1,30.23,South,185,6.0,7.0,64,0.00,,,0.04,989,Wunderground v.1.15,2013-07-04 18:00:00,
2013-07-04 14:06:00,87.0,73.3,30.23,SE,141,8.0,12.0,64,0.00,,,0.04,952,Wunderground v.1.15,2013-07-04 18:06:00,
2013-07-04 14:12:00,87.6,75.3,30.23,South,189,7.0,7.0,67,0.00,,,0.04,931,Wunderground v.1.15,2013-07-04 18:12:00,
2013-07-04 14:18:00,87.8,74.1,30.23,SSW,195,6.0,7.0,64,0.00,,,0.04,918,Wunderground v.1.15,2013-07-04 18:18:00,
2013-07-04 14:24:00,87.2,71.1,30.23,South,186,7.0,7.0,59,0.00,,,0.04,908,Wunderground v.1.15,2013-07-04 18:24:00,
2013-07-04 14:30:00,87.6,70.5,30.23,SW,217,6.0,6.0,57,0.00,,,0.04,904,Wunderground v.1.15,2013-07-04 18:30:00,
2013-07-04 14:36:00,87.6,72.0,30.23,SSW,199,6.0,7.0,60,0.00,,,0.04,899,Wunderground v.1.15,2013-07-04 18:36:00,
2013-07-04 14:42:00,88.0,73.8,30.23,SW,227,6.0,7.0,63,0.00,,,0.04,918,Wunderground v.1.15,2013-07-04 18:42:00,
2013-07-04 14:48:00,88.8,73.6,30.22,SSW,212,5.0,11.0,61,0.00,,,0.04,885,Wunderground v.1.15,2013-07-04 18:48:00,
2013-07-04 14:54:00,88.4,72.2,30.22,SSW,196,6.0,10.0,59,0.00,,,0.04,878,Wunderground v.1.15,2013-07-04 18:54:00,
2013-07-04 15:00:00,88.8,75.5,30.22,SSE,152,6.0,6.0,65,0.00,,,0.04,862,Wunderground v.1.15,2013-07-04 19:00:00,
2013-07-04 15:06:00,88.8,70.5,30.22,SW,222,5.0,6.0,55,0.00,,,0.04,862,Wunderground v.1.15,2013-07-04 19:06:00,
2013-07-04 15:08:00,88.6,71.4,30.22,SE,126,5.0,6.0,57,0.00,,,0.04,857,Wunderground v.1.15,2013-07-04 19:08:00,
2013-07-04 15:14:00,89.0,73.3,30.22,SE,138,4.0,5.0,60,0.00,,,0.04,852,Wunderground v.1.15,2013-07-04 19:14:00,
2013-07-04 15:20:00,89.0,71.3,30.21,South,174,3.0,7.0,56,0.00,,,0.04,843,Wunderground v.1.15,2013-07-04 19:20:00,
2013-07-04 15:26:00,89.3,69.9,30.21,SW,226,5.0,12.0,53,0.00,,,0.04,830,Wunderground v.1.15,2013-07-04 19:26:00,
2013-07-04 15:32:00,89.0,71.3,30.21,SE,136,7.0,7.0,56,0.00,,,0.04,822,Wunderground v.1.15,2013-07-04 19:32:00,
2013-07-04 15:38:00,89.0,70.2,30.21,SSW,205,6.0,10.0,54,0.00,,,0.04,808,Wunderground v.1.15,2013-07-04 19:38:00,
2013-07-04 15:44:00,89.3,72.6,30.21,West,274,6.0,6.0,58,0.00,,,0.04,797,Wunderground v.1.15,2013-07-04 19:44:00,
2013-07-04 15:50:00,89.3,69.9,30.20,SW,216,5.0,7.0,53,0.00,,,0.04,781,Wunderground v.1.15,2013-07-04 19:50:00,
2013-07-04 15:56:00,89.7,72.4,30.20,ESE,119,5.0,5.0,57,0.00,,,0.04,774,Wunderground v.1.15,2013-07-04 19:56:00,
2013-07-04 16:02:00,90.1,70.1,30.21,SSE,161,5.0,7.0,52,0.00,,,0.04,765,Wunderground v.1.15,2013-07-04 20:02:00,
2013-07-04 16:08:00,89.9,69.9,30.21,SSW,208,5.0,10.0,52,0.00,,,0.04,781,Wunderground v.1.15,2013-07-04 20:08:00,
2013-07-04 16:14:00,90.1,71.2,30.21,SSE,167,4.0,5.0,54,0.00,,,0.04,767,Wunderground v.1.15,2013-07-04 20:14:00,
2013-07-04 16:20:00,89.5,69.5,30.20,South,185,5.0,10.0,52,0.00,,,0.04,691,Wunderground v.1.15,2013-07-04 20:20:00,
2013-07-04 16:26:00,89.7,74.0,30.20,WSW,241,5.0,5.0,60,0.00,,,0.04,674,Wunderground v.1.15,2013-07-04 20:26:00,
2013-07-04 16:32:00,89.9,71.0,30.20,SSE,168,4.0,4.0,54,0.00,,,0.04,616,Wunderground v.1.15,2013-07-04 20:32:00,
2013-07-04 16:38:00,89.9,72.1,30.20,SW,219,4.0,5.0,56,0.00,,,0.04,618,Wunderground v.1.15,2013-07-04 20:38:00,
2013-07-04 16:44:00,90.1,71.8,30.20,SW,230,4.0,7.0,55,0.00,,,0.04,655,Wunderground v.1.15,2013-07-04 20:44:00,
2013-07-04 16:50:00,89.7,71.4,30.19,SSW,202,5.0,10.0,55,0.00,,,0.04,660,Wunderground v.1.15,2013-07-04 20:50:00,
2013-07-04 16:56:00,89.9,71.6,30.19,SSW,196,6.0,7.0,55,0.00,,,0.04,644,Wunderground v.1.15,2013-07-04 20:56:00,
2013-07-04 17:02:00,89.9,71.6,30.19,South,189,6.0,6.0,55,0.00,,,0.04,670,Wunderground v.1.15,2013-07-04 21:02:00,
2013-07-04 17:08:00,90.1,72.8,30.19,SSW,193,5.0,10.0,57,0.00,,,0.04,655,Wunderground v.1.15,2013-07-04 21:08:00,
2013-07-04 17:14:00,89.0,74.3,30.19,SE,141,7.0,12.0,62,0.00,,,0.04,107,Wunderground v.1.15,2013-07-04 21:14:00,
2013-07-04 17:20:00,87.8,74.1,30.19,SSE,165,5.0,12.0,64,0.00,,,0.04,99,Wunderground v.1.15,2013-07-04 21:20:00,
2013-07-04 17:26:00,87.4,74.2,30.19,South,181,4.0,7.0,65,0.00,,,0.04,111,Wunderground v.1.15,2013-07-04 21:26:00,
2013-07-04 17:32:00,86.5,74.7,30.19,South,179,4.0,4.0,68,0.00,,,0.04,132,Wunderground v.1.15,2013-07-04 21:32:00,
2013-07-04 17:38:00,86.5,73.8,30.19,WSW,258,4.0,4.0,66,0.00,,,0.04,225,Wunderground v.1.15,2013-07-04 21:38:00,
2013-07-04 17:44:00,86.7,74.4,30.19,SE,133,4.0,11.0,67,0.00,,,0.04,310,Wunderground v.1.15,2013-07-04 21:44:00,
2013-07-04 17:50:00,84.5,76.1,30.19,East,79,6.0,12.0,76,0.00,,,0.05,310,Wunderground v.1.15,2013-07-04 21:50:00,
2013-07-04 17:56:00,83.2,75.6,30.19,ENE,71,6.0,6.0,78,0.07,,,0.06,76,Wunderground v.1.15,2013-07-04 21:56:00,
2013-07-04 18:02:00,82.6,75.4,30.19,ENE,71,3.0,3.0,79,0.07,,,0.06,49,Wunderground v.1.15,2013-07-04 22:02:00,
2013-07-04 18:08:00,82.0,75.6,30.19,ENE,71,0.0,3.0,81,0.05,,,0.06,72,Wunderground v.1.15,2013-07-04 22:08:00,
2013-07-04 18:14:00,81.8,75.8,30.19,ENE,71,0.0,0.0,82,0.00,,,0.06,90,Wunderground v.1.15,2013-07-04 22:14:00,
2013-07-04 18:20:00,82.0,77.0,30.19,SE,126,1.0,5.0,85,0.00,,,0.06,359,Wunderground v.1.15,2013-07-04 22:20:00,
2013-07-04 18:26:00,83.0,78.0,30.19,SE,145,2.0,5.0,85,0.00,,,0.06,364,Wunderground v.1.15,2013-07-04 22:26:00,
2013-07-04 18:32:00,83.8,77.3,30.19,SSE,162,2.0,5.0,81,0.00,,,0.06,366,Wunderground v.1.15,2013-07-04 22:32:00,
2013-07-04 18:38:00,84.9,76.1,30.19,South,178,3.0,5.0,75,0.00,,,0.06,329,Wunderground v.1.15,2013-07-04 22:38:00,
2013-07-04 18:44:00,85.7,76.0,30.19,WSW,251,3.0,7.0,73,0.00,,,0.06,348,Wunderground v.1.15,2013-07-04 22:44:00,
2013-07-04 18:51:00,86.1,75.2,30.19,South,178,5.0,5.0,70,0.00,,,0.06,375,Wunderground v.1.15,2013-07-04 22:51:00,
2013-07-04 18:56:00,86.1,73.9,30.19,SSW,202,6.0,10.0,67,0.00,,,0.06,350,Wunderground v.1.15,2013-07-04 22:56:00,
2013-07-04 19:02:00,85.7,74.4,30.19,WSW,244,5.0,7.0,69,0.00,,,0.06,127,Wunderground v.1.15,2013-07-04 23:02:00,
2013-07-04 19:08:00,85.1,74.2,30.19,SSW,196,4.0,7.0,70,0.00,,,0.06,134,Wunderground v.1.15,2013-07-04 23:08:00,
2013-07-04 19:14:00,84.7,73.8,30.19,South,169,4.0,10.0,70,0.00,,,0.06,116,Wunderground v.1.15,2013-07-04 23:14:00,
2013-07-04 19:20:00,84.1,73.3,30.20,South,181,6.0,6.0,70,0.00,,,0.06,132,Wunderground v.1.15,2013-07-04 23:20:00,
2013-07-04 19:26:00,84.0,73.6,30.20,West,267,4.0,6.0,71,0.00,,,0.06,76,Wunderground v.1.15,2013-07-04 23:26:00,
2013-07-04 19:32:00,83.8,73.8,30.20,SSE,154,4.0,5.0,72,0.00,,,0.06,67,Wunderground v.1.15,2013-07-04 23:32:00,
2013-07-04 19:38:00,83.4,73.4,30.20,SSW,209,4.0,10.0,72,0.00,,,0.06,63,Wunderground v.1.15,2013-07-04 23:38:00,
2013-07-04 19:44:00,83.2,72.8,30.20,SW,222,5.0,6.0,71,0.00,,,0.06,51,Wunderground v.1.15,2013-07-04 23:44:00,
2013-07-04 19:50:00,83.0,73.0,30.20,SSW,196,5.0,5.0,72,0.00,,,0.06,44,Wunderground v.1.15,2013-07-04 23:50:00,
2013-07-04 19:56:00,82.8,73.3,30.20,SSW,203,4.0,6.0,73,0.00,,,0.06,35,Wunderground v.1.15,2013-07-04 23:56:00,
2013-07-04 20:02:00,82.4,72.5,30.21,WSW,244,4.0,4.0,72,0.00,,,0.06,32,Wunderground v.1.15,2013-07-05 00:02:00,
2013-07-04 20:08:00,82.2,72.3,30.21,SW,222,5.0,5.0,72,0.00,,,0.06,26,Wunderground v.1.15,2013-07-05 00:08:00,
2013-07-04 20:14:00,81.8,72.3,30.21,South,189,4.0,4.0,73,0.00,,,0.06,19,Wunderground v.1.15,2013-07-05 00:14:00,
2013-07-04 20:20:00,81.6,72.1,30.21,SSE,150,3.0,3.0,73,0.00,,,0.06,12,Wunderground v.1.15,2013-07-05 00:20:00,
2013-07-04 20:26:00,81.4,72.3,30.21,SSW,195,3.0,5.0,74,0.00,,,0.06,9,Wunderground v.1.15,2013-07-05 00:26:00,
2013-07-04 20:32:00,81.1,72.0,30.21,WSW,247,4.0,5.0,74,0.00,,,0.06,7,Wunderground v.1.15,2013-07-05 00:32:00,
2013-07-04 20:38:00,80.9,71.8,30.21,South,189,4.0,7.0,74,0.00,,,0.06,0,Wunderground v.1.15,2013-07-05 00:38:00,
2013-07-04 20:44:00,80.7,71.6,30.21,South,182,4.0,7.0,74,0.00,,,0.06,0,Wunderground v.1.15,2013-07-05 00:44:00,
2013-07-04 20:50:00,80.5,71.0,30.21,SW,224,4.0,4.0,73,0.00,,,0.06,0,Wunderground v.1.15,2013-07-05 00:50:00,
2013-07-04 20:56:00,80.3,70.9,30.21,SW,216,5.0,5.0,73,0.00,,,0.06,0,Wunderground v.1.15,2013-07-05 00:56:00,
2013-07-04 21:02:00,80.1,70.7,30.22,South,179,4.0,12.0,73,0.00,,,0.06,0,Wunderground v.1.15,2013-07-05 01:02:00,
2013-07-04 21:08:00,79.8,70.8,30.22,South,191,3.0,12.0,74,0.00,,,0.06,0,Wunderground v.1.15,2013-07-05 01:08:00,
2013-07-04 21:14:00,79.8,70.8,30.22,South,191,4.0,4.0,74,0.00,,,0.06,0,Wunderground v.1.15,2013-07-05 01:14:00,
2013-07-04 21:20:00,79.6,70.6,30.22,SSW,205,3.0,5.0,74,0.00,,,0.06,0,Wunderground v.1.15,2013-07-05 01:20:00,
2013-07-04 21:26:00,79.2,70.6,30.22,SW,217,3.0,6.0,75,0.00,,,0.06,0,Wunderground v.1.15,2013-07-05 01:26:00,
2013-07-04 21:32:00,79.0,70.4,30.23,South,182,3.0,3.0,75,0.00,,,0.06,0,Wunderground v.1.15,2013-07-05 01:32:00,
2013-07-04 21:38:00,78.8,70.6,30.23,South,172,2.0,5.0,76,0.00,,,0.06,0,Wunderground v.1.15,2013-07-05 01:38:00,
2013-07-04 21:44:00,78.6,70.4,30.23,SSW,205,3.0,3.0,76,0.00,,,0.06,0,Wunderground v.1.15,2013-07-05 01:44:00,
2013-07-04 21:50:00,78.5,70.7,30.23,SSW,196,3.0,5.0,77,0.00,,,0.06,0,Wunderground v.1.15,2013-07-05 01:50:00,
2013-07-04 21:56:00,78.3,70.5,30.23,South,188,3.0,4.0,77,0.00,,,0.06,0,Wunderground v.1.15,2013-07-05 01:56:00,
2013-07-04 22:02:00,78.1,70.7,30.24,SSW,203,2.0,2.0,78,0.00,,,0.06,0,Wunderground v.1.15,2013-07-05 02:02:00,
2013-07-04 22:08:00,77.9,70.5,30.24,South,184,2.0,2.0,78,0.00,,,0.06,0,Wunderground v.1.15,2013-07-05 02:08:00,
2013-07-04 22:14:00,77.7,70.3,30.24,South,179,3.0,5.0,78,0.00,,,0.06,0,Wunderground v.1.15,2013-07-05 02:14:00,
2013-07-04 22:21:00,77.6,70.6,30.24,SSW,196,3.0,3.0,79,0.00,,,0.06,0,Wunderground v.1.15,2013-07-05 02:21:00,
2013-07-04 22:26:00,77.6,70.6,30.24,South,188,3.0,5.0,79,0.00,,,0.06,0,Wunderground v.1.15,2013-07-05 02:26:00,
2013-07-04 22:32:00,77.4,70.7,30.25,South,174,2.0,3.0,80,0.00,,,0.06,0,Wunderground v.1.15,2013-07-05 02:32:00,
2013-07-04 22:38:00,77.2,70.5,30.25,SSW,192,3.0,5.0,80,0.00,,,0.06,0,Wunderground v.1.15,2013-07-05 02:38:00,
2013-07-04 22:44:00,77.0,70.7,30.25,SSE,158,4.0,4.0,81,0.00,,,0.06,0,Wunderground v.1.15,2013-07-05 02:44:00,
2013-07-04 22:50:00,77.0,70.7,30.25,South,181,3.0,3.0,81,0.00,,,0.06,0,Wunderground v.1.15,2013-07-05 02:50:00,
2013-07-04 22:56:00,76.8,70.9,30.25,SE,137,3.0,5.0,82,0.00,,,0.06,0,Wunderground v.1.15,2013-07-05 02:56:00,
2013-07-04 23:02:00,76.7,71.1,30.25,SSW,205,3.0,3.0,83,0.00,,,0.06,0,Wunderground v.1.15,2013-07-05 03:02:00,
2013-07-04 23:08:00,76.7,71.1,30.25,South,176,2.0,5.0,83,0.00,,,0.06,0,Wunderground v.1.15,2013-07-05 03:08:00,
2013-07-04 23:14:00,76.5,71.3,30.25,South,185,3.0,7.0,84,0.00,,,0.06,0,Wunderground v.1.15,2013-07-05 03:14:00,
2013-07-04 23:20:00,76.3,71.1,30.25,SSW,195,3.0,3.0,84,0.00,,,0.06,0,Wunderground v.1.15,2013-07-05 03:20:00,
2013-07-04 23:26:00,76.3,71.1,30.25,SSW,199,2.0,4.0,84,0.00,,,0.06,0,Wunderground v.1.15,2013-07-05 03:26:00,
2013-07-04 23:32:00,76.1,71.3,30.25,SSW,193,3.0,5.0,85,0.00,,,0.06,0,Wunderground v.1.15,2013-07-05 03:32:00,
2013-07-04 23:38:00,76.0,71.5,30.25,SSW,213,4.0,5.0,86,0.00,,,0.06,0,Wunderground v.1.15,2013-07-05 03:38:00,
2013-07-04 23:44:00,76.0,71.5,30.25,SW,216,3.0,5.0,86,0.00,,,0.06,0,Wunderground v.1.15,2013-07-05 03:44:00,
2013-07-04 23:50:00,75.8,71.7,30.25,South,188,3.0,3.0,87,0.00,,,0.06,0,Wunderground v.1.15,2013-07-05 03:50:00,
2013-07-04 23:56:00,75.8,71.7,30.25,South,179,2.0,3.0,87,0.00,,,0.06,0,Wunderground v.1.15,2013-07-05 03:56:00,